sensor_id;sensor_type;location;lat;lon;timestamp;P1;durP1;ratioP1;P2;durP2;ratioP2
62030;SDS011;62035;52.094;5.112;2023-06-14T00:01:52;5.13;;;2.67;;
62030;SDS011;62035;52.094;5.112;2023-06-14T00:04:19;6.88;;;2.78;;
62030;SDS011;62035;52.094;5.112;2023-06-14T00:09:18;7.63;;;2.83;;
62030;SDS011;62035;52.094;5.112;2023-06-14T00:11:45;8.77;;;2.78;;
62030;SDS011;62035;52.094;5.112;2023-06-14T00:14:14;5.82;;;2.67;;
62030;SDS011;62035;52.094;5.112;2023-06-14T00:16:42;8.98;;;2.85;;
62030;SDS011;62035;52.094;5.112;2023-06-14T00:19:09;5.13;;;2.50;;
62030;SDS011;62035;52.094;5.112;2023-06-14T00:21:37;10.00;;;2.70;;
62030;SDS011;62035;52.094;5.112;2023-06-14T00:24:05;4.57;;;2.45;;
62030;SDS011;62035;52.094;5.112;2023-06-14T00:26:34;6.78;;;2.50;;
62030;SDS011;62035;52.094;5.112;2023-06-14T00:29:02;8.73;;;3.67;;
62030;SDS011;62035;52.094;5.112;2023-06-14T00:31:31;8.38;;;2.72;;
62030;SDS011;62035;52.094;5.112;2023-06-14T00:33:58;5.57;;;2.80;;
62030;SDS011;62035;52.094;5.112;2023-06-14T00:36:26;4.55;;;2.50;;
62030;SDS011;62035;52.094;5.112;2023-06-14T00:38:53;4.65;;;2.53;;
62030;SDS011;62035;52.094;5.112;2023-06-14T00:41:21;4.70;;;2.53;;
62030;SDS011;62035;52.094;5.112;2023-06-14T00:43:48;5.28;;;2.45;;
62030;SDS011;62035;52.094;5.112;2023-06-14T00:46:17;5.55;;;2.58;;
62030;SDS011;62035;52.094;5.112;2023-06-14T00:48:46;6.18;;;2.65;;
62030;SDS011;62035;52.094;5.112;2023-06-14T00:51:15;7.95;;;2.80;;
62030;SDS011;62035;52.094;5.112;2023-06-14T00:53:43;8.98;;;2.65;;
62030;SDS011;62035;52.094;5.112;2023-06-14T00:56:12;6.28;;;2.25;;
62030;SDS011;62035;52.094;5.112;2023-06-14T00:58:40;6.00;;;3.05;;
62030;SDS011;62035;52.094;5.112;2023-06-14T01:01:09;7.00;;;2.88;;
62030;SDS011;62035;52.094;5.112;2023-06-14T01:03:38;6.25;;;2.90;;
62030;SDS011;62035;52.094;5.112;2023-06-14T01:06:09;10.63;;;2.55;;
62030;SDS011;62035;52.094;5.112;2023-06-14T01:08:57;5.68;;;2.50;;
62030;SDS011;62035;52.094;5.112;2023-06-14T01:11:47;5.93;;;2.72;;
62030;SDS011;62035;52.094;5.112;2023-06-14T01:14:26;4.90;;;2.47;;
62030;SDS011;62035;52.094;5.112;2023-06-14T01:16:57;6.18;;;2.83;;
62030;SDS011;62035;52.094;5.112;2023-06-14T01:19:26;5.95;;;2.83;;
62030;SDS011;62035;52.094;5.112;2023-06-14T01:21:56;11.13;;;2.47;;
62030;SDS011;62035;52.094;5.112;2023-06-14T01:24:28;7.13;;;2.70;;
62030;SDS011;62035;52.094;5.112;2023-06-14T01:26:59;11.13;;;2.85;;
62030;SDS011;62035;52.094;5.112;2023-06-14T01:29:28;6.03;;;2.92;;
62030;SDS011;62035;52.094;5.112;2023-06-14T01:31:58;8.30;;;2.55;;
62030;SDS011;62035;52.094;5.112;2023-06-14T01:34:27;6.75;;;2.58;;
62030;SDS011;62035;52.094;5.112;2023-06-14T01:36:55;7.35;;;2.72;;
62030;SDS011;62035;52.094;5.112;2023-06-14T01:39:23;6.15;;;2.58;;
62030;SDS011;62035;52.094;5.112;2023-06-14T01:41:53;8.38;;;2.70;;
62030;SDS011;62035;52.094;5.112;2023-06-14T01:44:21;8.63;;;2.45;;
62030;SDS011;62035;52.094;5.112;2023-06-14T01:46:50;11.95;;;2.17;;
62030;SDS011;62035;52.094;5.112;2023-06-14T01:49:18;8.85;;;2.70;;
62030;SDS011;62035;52.094;5.112;2023-06-14T01:51:47;8.38;;;2.50;;
62030;SDS011;62035;52.094;5.112;2023-06-14T01:54:15;9.63;;;2.30;;
62030;SDS011;62035;52.094;5.112;2023-06-14T01:56:42;5.97;;;2.58;;
62030;SDS011;62035;52.094;5.112;2023-06-14T01:59:11;9.57;;;2.63;;
62030;SDS011;62035;52.094;5.112;2023-06-14T02:01:39;4.68;;;2.55;;
62030;SDS011;62035;52.094;5.112;2023-06-14T02:04:07;7.43;;;2.65;;
62030;SDS011;62035;52.094;5.112;2023-06-14T02:06:34;6.35;;;2.47;;
62030;SDS011;62035;52.094;5.112;2023-06-14T02:09:02;8.27;;;2.55;;
62030;SDS011;62035;52.094;5.112;2023-06-14T02:11:30;8.55;;;2.80;;
62030;SDS011;62035;52.094;5.112;2023-06-14T02:13:58;7.30;;;2.60;;
62030;SDS011;62035;52.094;5.112;2023-06-14T02:16:27;6.97;;;2.50;;
62030;SDS011;62035;52.094;5.112;2023-06-14T02:18:55;4.47;;;2.40;;
62030;SDS011;62035;52.094;5.112;2023-06-14T02:21:22;7.65;;;2.40;;
62030;SDS011;62035;52.094;5.112;2023-06-14T02:23:50;5.63;;;2.65;;
62030;SDS011;62035;52.094;5.112;2023-06-14T02:26:18;4.28;;;2.20;;
62030;SDS011;62035;52.094;5.112;2023-06-14T02:28:45;8.00;;;2.60;;
62030;SDS011;62035;52.094;5.112;2023-06-14T02:31:13;5.40;;;2.70;;
62030;SDS011;62035;52.094;5.112;2023-06-14T02:33:43;5.22;;;2.55;;
62030;SDS011;62035;52.094;5.112;2023-06-14T02:36:11;5.25;;;2.72;;
62030;SDS011;62035;52.094;5.112;2023-06-14T02:38:38;4.75;;;2.17;;
62030;SDS011;62035;52.094;5.112;2023-06-14T02:41:07;6.22;;;2.60;;
62030;SDS011;62035;52.094;5.112;2023-06-14T02:43:34;5.53;;;2.33;;
62030;SDS011;62035;52.094;5.112;2023-06-14T02:46:02;8.45;;;2.63;;
62030;SDS011;62035;52.094;5.112;2023-06-14T02:48:29;5.95;;;2.40;;
62030;SDS011;62035;52.094;5.112;2023-06-14T02:50:58;6.22;;;2.50;;
62030;SDS011;62035;52.094;5.112;2023-06-14T02:53:26;4.63;;;2.50;;
62030;SDS011;62035;52.094;5.112;2023-06-14T02:55:53;5.50;;;2.35;;
62030;SDS011;62035;52.094;5.112;2023-06-14T02:58:21;7.88;;;2.28;;
62030;SDS011;62035;52.094;5.112;2023-06-14T03:00:50;5.03;;;2.30;;
62030;SDS011;62035;52.094;5.112;2023-06-14T03:03:18;5.25;;;2.40;;
62030;SDS011;62035;52.094;5.112;2023-06-14T03:05:47;7.82;;;2.50;;
62030;SDS011;62035;52.094;5.112;2023-06-14T03:08:18;6.68;;;2.22;;
62030;SDS011;62035;52.094;5.112;2023-06-14T03:10:46;6.45;;;2.35;;
62030;SDS011;62035;52.094;5.112;2023-06-14T03:13:14;5.55;;;2.50;;
62030;SDS011;62035;52.094;5.112;2023-06-14T03:15:43;13.98;;;2.65;;
62030;SDS011;62035;52.094;5.112;2023-06-14T03:18:10;7.68;;;2.53;;
62030;SDS011;62035;52.094;5.112;2023-06-14T03:20:38;3.78;;;2.20;;
62030;SDS011;62035;52.094;5.112;2023-06-14T03:23:06;8.25;;;2.67;;
62030;SDS011;62035;52.094;5.112;2023-06-14T03:25:35;6.75;;;2.50;;
62030;SDS011;62035;52.094;5.112;2023-06-14T03:28:04;7.78;;;2.67;;
62030;SDS011;62035;52.094;5.112;2023-06-14T03:30:32;5.90;;;2.25;;
62030;SDS011;62035;52.094;5.112;2023-06-14T03:33:00;11.27;;;2.70;;
62030;SDS011;62035;52.094;5.112;2023-06-14T03:35:28;8.48;;;2.30;;
62030;SDS011;62035;52.094;5.112;2023-06-14T03:37:55;6.57;;;2.40;;
62030;SDS011;62035;52.094;5.112;2023-06-14T03:40:23;8.23;;;2.50;;
62030;SDS011;62035;52.094;5.112;2023-06-14T03:42:54;19.08;;;2.55;;
62030;SDS011;62035;52.094;5.112;2023-06-14T03:45:22;5.90;;;2.30;;
62030;SDS011;62035;52.094;5.112;2023-06-14T03:47:49;5.10;;;2.40;;
62030;SDS011;62035;52.094;5.112;2023-06-14T03:50:17;6.65;;;2.50;;
62030;SDS011;62035;52.094;5.112;2023-06-14T03:52:46;11.68;;;2.22;;
62030;SDS011;62035;52.094;5.112;2023-06-14T03:55:16;4.63;;;2.55;;
62030;SDS011;62035;52.094;5.112;2023-06-14T03:57:43;6.25;;;2.30;;
62030;SDS011;62035;52.094;5.112;2023-06-14T04:00:13;6.30;;;2.63;;
62030;SDS011;62035;52.094;5.112;2023-06-14T04:02:41;4.88;;;2.30;;
62030;SDS011;62035;52.094;5.112;2023-06-14T04:05:10;9.15;;;2.67;;
62030;SDS011;62035;52.094;5.112;2023-06-14T04:07:38;9.90;;;2.60;;
62030;SDS011;62035;52.094;5.112;2023-06-14T04:10:10;4.97;;;2.30;;
62030;SDS011;62035;52.094;5.112;2023-06-14T04:12:39;7.63;;;2.22;;
62030;SDS011;62035;52.094;5.112;2023-06-14T04:15:07;5.13;;;2.17;;
62030;SDS011;62035;52.094;5.112;2023-06-14T04:17:38;7.50;;;2.42;;
62030;SDS011;62035;52.094;5.112;2023-06-14T04:20:06;4.07;;;2.53;;
62030;SDS011;62035;52.094;5.112;2023-06-14T04:22:35;4.85;;;2.25;;
62030;SDS011;62035;52.094;5.112;2023-06-14T04:25:03;5.47;;;2.50;;
62030;SDS011;62035;52.094;5.112;2023-06-14T04:27:32;4.50;;;2.50;;
62030;SDS011;62035;52.094;5.112;2023-06-14T04:30:02;4.57;;;2.45;;
62030;SDS011;62035;52.094;5.112;2023-06-14T04:32:30;7.88;;;3.10;;
62030;SDS011;62035;52.094;5.112;2023-06-14T04:35:00;16.10;;;2.42;;
62030;SDS011;62035;52.094;5.112;2023-06-14T04:37:29;7.25;;;2.33;;
62030;SDS011;62035;52.094;5.112;2023-06-14T04:39:57;7.05;;;2.63;;
62030;SDS011;62035;52.094;5.112;2023-06-14T04:42:25;10.13;;;2.58;;
62030;SDS011;62035;52.094;5.112;2023-06-14T04:47:24;10.57;;;2.50;;
62030;SDS011;62035;52.094;5.112;2023-06-14T04:49:56;10.30;;;2.15;;
62030;SDS011;62035;52.094;5.112;2023-06-14T04:52:27;5.07;;;2.30;;
62030;SDS011;62035;52.094;5.112;2023-06-14T04:54:55;9.80;;;2.60;;
62030;SDS011;62035;52.094;5.112;2023-06-14T04:57:23;8.07;;;2.60;;
62030;SDS011;62035;52.094;5.112;2023-06-14T04:59:51;4.03;;;2.30;;
62030;SDS011;62035;52.094;5.112;2023-06-14T05:02:21;5.72;;;2.65;;
62030;SDS011;62035;52.094;5.112;2023-06-14T05:04:49;9.88;;;2.90;;
62030;SDS011;62035;52.094;5.112;2023-06-14T05:07:18;5.82;;;2.55;;
62030;SDS011;62035;52.094;5.112;2023-06-14T05:09:47;6.05;;;2.35;;
62030;SDS011;62035;52.094;5.112;2023-06-14T05:12:14;13.55;;;3.13;;
62030;SDS011;62035;52.094;5.112;2023-06-14T05:14:44;7.90;;;2.75;;
62030;SDS011;62035;52.094;5.112;2023-06-14T05:17:12;4.72;;;2.17;;
62030;SDS011;62035;52.094;5.112;2023-06-14T05:19:40;6.18;;;2.20;;
62030;SDS011;62035;52.094;5.112;2023-06-14T05:22:07;8.73;;;2.60;;
62030;SDS011;62035;52.094;5.112;2023-06-14T05:24:35;8.63;;;2.75;;
62030;SDS011;62035;52.094;5.112;2023-06-14T05:27:04;11.50;;;2.33;;
62030;SDS011;62035;52.094;5.112;2023-06-14T05:29:32;11.98;;;2.80;;
62030;SDS011;62035;52.094;5.112;2023-06-14T05:32:00;5.28;;;2.35;;
62030;SDS011;62035;52.094;5.112;2023-06-14T05:34:28;5.25;;;2.20;;
62030;SDS011;62035;52.094;5.112;2023-06-14T05:36:55;6.32;;;2.42;;
62030;SDS011;62035;52.094;5.112;2023-06-14T05:39:23;10.90;;;2.50;;
62030;SDS011;62035;52.094;5.112;2023-06-14T05:41:50;5.03;;;2.28;;
62030;SDS011;62035;52.094;5.112;2023-06-14T05:44:19;7.88;;;3.50;;
62030;SDS011;62035;52.094;5.112;2023-06-14T05:46:47;8.40;;;2.47;;
62030;SDS011;62035;52.094;5.112;2023-06-14T05:49:14;8.80;;;2.63;;
62030;SDS011;62035;52.094;5.112;2023-06-14T05:51:42;8.23;;;2.60;;
62030;SDS011;62035;52.094;5.112;2023-06-14T05:54:09;5.07;;;2.50;;
62030;SDS011;62035;52.094;5.112;2023-06-14T05:56:37;5.40;;;2.20;;
62030;SDS011;62035;52.094;5.112;2023-06-14T05:59:04;7.88;;;2.60;;
62030;SDS011;62035;52.094;5.112;2023-06-14T06:01:33;7.60;;;2.40;;
62030;SDS011;62035;52.094;5.112;2023-06-14T06:04:02;6.38;;;2.40;;
62030;SDS011;62035;52.094;5.112;2023-06-14T06:06:30;9.52;;;2.65;;
62030;SDS011;62035;52.094;5.112;2023-06-14T06:08:58;5.97;;;2.30;;
62030;SDS011;62035;52.094;5.112;2023-06-14T06:11:26;8.98;;;2.40;;
62030;SDS011;62035;52.094;5.112;2023-06-14T06:13:53;6.80;;;2.40;;
62030;SDS011;62035;52.094;5.112;2023-06-14T06:16:21;10.70;;;2.88;;
62030;SDS011;62035;52.094;5.112;2023-06-14T06:18:51;7.18;;;2.53;;
62030;SDS011;62035;52.094;5.112;2023-06-14T06:21:19;7.07;;;2.35;;
62030;SDS011;62035;52.094;5.112;2023-06-14T06:23:46;7.20;;;2.42;;
62030;SDS011;62035;52.094;5.112;2023-06-14T06:26:14;7.63;;;2.80;;
62030;SDS011;62035;52.094;5.112;2023-06-14T06:28:42;7.88;;;2.40;;
62030;SDS011;62035;52.094;5.112;2023-06-14T06:31:09;5.10;;;2.72;;
62030;SDS011;62035;52.094;5.112;2023-06-14T06:33:37;13.05;;;2.83;;
62030;SDS011;62035;52.094;5.112;2023-06-14T06:36:06;10.18;;;2.65;;
62030;SDS011;62035;52.094;5.112;2023-06-14T06:38:34;5.45;;;2.20;;
62030;SDS011;62035;52.094;5.112;2023-06-14T06:41:02;9.98;;;2.60;;
62030;SDS011;62035;52.094;5.112;2023-06-14T06:43:29;6.63;;;2.85;;
62030;SDS011;62035;52.094;5.112;2023-06-14T06:45:57;12.23;;;2.40;;
62030;SDS011;62035;52.094;5.112;2023-06-14T06:48:24;9.90;;;2.42;;
62030;SDS011;62035;52.094;5.112;2023-06-14T06:50:52;5.45;;;2.40;;
62030;SDS011;62035;52.094;5.112;2023-06-14T06:53:21;12.63;;;2.35;;
62030;SDS011;62035;52.094;5.112;2023-06-14T06:55:49;5.70;;;2.58;;
62030;SDS011;62035;52.094;5.112;2023-06-14T06:58:16;7.10;;;2.78;;
62030;SDS011;62035;52.094;5.112;2023-06-14T07:00:44;5.47;;;2.15;;
62030;SDS011;62035;52.094;5.112;2023-06-14T07:03:12;6.32;;;2.40;;
62030;SDS011;62035;52.094;5.112;2023-06-14T07:05:39;9.52;;;2.95;;
62030;SDS011;62035;52.094;5.112;2023-06-14T07:08:07;8.10;;;2.55;;
62030;SDS011;62035;52.094;5.112;2023-06-14T07:10:36;9.20;;;2.50;;
62030;SDS011;62035;52.094;5.112;2023-06-14T07:13:03;12.43;;;2.60;;
62030;SDS011;62035;52.094;5.112;2023-06-14T07:15:31;7.70;;;2.70;;
62030;SDS011;62035;52.094;5.112;2023-06-14T07:17:59;8.93;;;2.50;;
62030;SDS011;62035;52.094;5.112;2023-06-14T07:20:27;12.55;;;2.90;;
62030;SDS011;62035;52.094;5.112;2023-06-14T07:22:55;9.70;;;2.47;;
62030;SDS011;62035;52.094;5.112;2023-06-14T07:25:22;12.02;;;2.50;;
62030;SDS011;62035;52.094;5.112;2023-06-14T07:27:52;7.00;;;2.58;;
62030;SDS011;62035;52.094;5.112;2023-06-14T07:30:20;8.35;;;2.47;;
62030;SDS011;62035;52.094;5.112;2023-06-14T07:32:51;5.85;;;2.60;;
62030;SDS011;62035;52.094;5.112;2023-06-14T07:35:19;4.55;;;2.50;;
62030;SDS011;62035;52.094;5.112;2023-06-14T07:37:46;4.72;;;2.35;;
62030;SDS011;62035;52.094;5.112;2023-06-14T07:40:15;6.50;;;2.45;;
62030;SDS011;62035;52.094;5.112;2023-06-14T07:42:43;4.68;;;2.33;;
62030;SDS011;62035;52.094;5.112;2023-06-14T07:45:13;7.43;;;2.60;;
62030;SDS011;62035;52.094;5.112;2023-06-14T07:47:41;5.25;;;2.33;;
62030;SDS011;62035;52.094;5.112;2023-06-14T07:50:09;10.48;;;2.83;;
62030;SDS011;62035;52.094;5.112;2023-06-14T07:52:37;5.57;;;2.60;;
62030;SDS011;62035;52.094;5.112;2023-06-14T07:55:05;8.18;;;2.40;;
62030;SDS011;62035;52.094;5.112;2023-06-14T07:57:33;7.30;;;2.95;;
62030;SDS011;62035;52.094;5.112;2023-06-14T08:00:01;10.55;;;2.55;;
62030;SDS011;62035;52.094;5.112;2023-06-14T08:02:33;9.23;;;2.70;;
62030;SDS011;62035;52.094;5.112;2023-06-14T08:05:00;5.90;;;2.47;;
62030;SDS011;62035;52.094;5.112;2023-06-14T08:07:28;5.80;;;2.92;;
62030;SDS011;62035;52.094;5.112;2023-06-14T08:09:55;7.07;;;2.35;;
62030;SDS011;62035;52.094;5.112;2023-06-14T08:12:23;9.68;;;2.40;;
62030;SDS011;62035;52.094;5.112;2023-06-14T08:14:51;9.43;;;2.10;;
62030;SDS011;62035;52.094;5.112;2023-06-14T08:17:18;6.30;;;2.38;;
62030;SDS011;62035;52.094;5.112;2023-06-14T08:19:47;4.82;;;2.28;;
62030;SDS011;62035;52.094;5.112;2023-06-14T08:22:15;7.68;;;2.45;;
62030;SDS011;62035;52.094;5.112;2023-06-14T08:24:43;6.15;;;2.05;;
62030;SDS011;62035;52.094;5.112;2023-06-14T08:27:11;6.78;;;2.60;;
62030;SDS011;62035;52.094;5.112;2023-06-14T08:29:39;4.63;;;2.35;;
62030;SDS011;62035;52.094;5.112;2023-06-14T08:32:07;6.85;;;2.42;;
62030;SDS011;62035;52.094;5.112;2023-06-14T08:34:35;5.93;;;2.38;;
62030;SDS011;62035;52.094;5.112;2023-06-14T08:37:04;9.02;;;2.55;;
62030;SDS011;62035;52.094;5.112;2023-06-14T08:39:32;7.45;;;2.05;;
62030;SDS011;62035;52.094;5.112;2023-06-14T08:42:00;8.05;;;2.10;;
62030;SDS011;62035;52.094;5.112;2023-06-14T08:44:30;4.28;;;2.25;;
62030;SDS011;62035;52.094;5.112;2023-06-14T08:46:57;8.82;;;2.40;;
62030;SDS011;62035;52.094;5.112;2023-06-14T08:49:29;11.90;;;2.15;;
62030;SDS011;62035;52.094;5.112;2023-06-14T08:51:59;8.85;;;2.63;;
62030;SDS011;62035;52.094;5.112;2023-06-14T08:54:29;4.72;;;2.05;;
62030;SDS011;62035;52.094;5.112;2023-06-14T08:57:00;6.93;;;1.92;;
62030;SDS011;62035;52.094;5.112;2023-06-14T08:59:28;8.07;;;2.15;;
62030;SDS011;62035;52.094;5.112;2023-06-14T09:01:57;5.00;;;1.88;;
62030;SDS011;62035;52.094;5.112;2023-06-14T09:04:26;4.38;;;1.95;;
62030;SDS011;62035;52.094;5.112;2023-06-14T09:06:55;6.35;;;1.88;;
62030;SDS011;62035;52.094;5.112;2023-06-14T09:09:24;11.57;;;2.30;;
62030;SDS011;62035;52.094;5.112;2023-06-14T09:11:54;14.00;;;2.00;;
62030;SDS011;62035;52.094;5.112;2023-06-14T09:14:23;9.07;;;2.13;;
62030;SDS011;62035;52.094;5.112;2023-06-14T09:16:52;7.43;;;1.85;;
62030;SDS011;62035;52.094;5.112;2023-06-14T09:19:21;4.55;;;2.20;;
62030;SDS011;62035;52.094;5.112;2023-06-14T09:21:50;7.57;;;1.97;;
62030;SDS011;62035;52.094;5.112;2023-06-14T09:24:19;4.60;;;1.67;;
62030;SDS011;62035;52.094;5.112;2023-06-14T09:26:47;4.45;;;1.85;;
62030;SDS011;62035;52.094;5.112;2023-06-14T09:29:17;5.65;;;1.98;;
62030;SDS011;62035;52.094;5.112;2023-06-14T09:31:46;6.40;;;2.03;;
62030;SDS011;62035;52.094;5.112;2023-06-14T09:34:14;8.98;;;2.40;;
62030;SDS011;62035;52.094;5.112;2023-06-14T09:39:17;7.90;;;1.60;;
62030;SDS011;62035;52.094;5.112;2023-06-14T09:41:45;3.55;;;1.65;;
62030;SDS011;62035;52.094;5.112;2023-06-14T09:44:13;5.13;;;1.70;;
62030;SDS011;62035;52.094;5.112;2023-06-14T09:46:42;5.70;;;1.67;;
62030;SDS011;62035;52.094;5.112;2023-06-14T09:49:10;2.40;;;1.40;;
62030;SDS011;62035;52.094;5.112;2023-06-14T09:51:42;5.43;;;1.70;;
62030;SDS011;62035;52.094;5.112;2023-06-14T09:54:14;3.17;;;1.70;;
62030;SDS011;62035;52.094;5.112;2023-06-14T09:56:47;2.20;;;1.38;;
62030;SDS011;62035;52.094;5.112;2023-06-14T09:59:19;6.00;;;1.53;;
62030;SDS011;62035;52.094;5.112;2023-06-14T10:01:57;2.65;;;1.50;;
62030;SDS011;62035;52.094;5.112;2023-06-14T10:04:29;5.30;;;1.70;;
62030;SDS011;62035;52.094;5.112;2023-06-14T10:07:00;4.43;;;1.75;;
62030;SDS011;62035;52.094;5.112;2023-06-14T10:09:30;3.78;;;1.65;;
62030;SDS011;62035;52.094;5.112;2023-06-14T10:14:30;4.25;;;1.80;;
62030;SDS011;62035;52.094;5.112;2023-06-14T10:17:02;4.60;;;1.70;;
62030;SDS011;62035;52.094;5.112;2023-06-14T10:19:37;3.92;;;1.60;;
62030;SDS011;62035;52.094;5.112;2023-06-14T10:22:23;3.40;;;1.33;;
62030;SDS011;62035;52.094;5.112;2023-06-14T10:25:03;3.67;;;1.60;;
62030;SDS011;62035;52.094;5.112;2023-06-14T10:27:37;4.28;;;1.80;;
62030;SDS011;62035;52.094;5.112;2023-06-14T10:30:07;6.95;;;1.58;;
62030;SDS011;62035;52.094;5.112;2023-06-14T10:32:38;2.10;;;1.30;;
62030;SDS011;62035;52.094;5.112;2023-06-14T10:35:33;4.85;;;2.00;;
62030;SDS011;62035;52.094;5.112;2023-06-14T10:38:07;3.75;;;1.50;;
62030;SDS011;62035;52.094;5.112;2023-06-14T10:40:36;3.83;;;1.83;;
62030;SDS011;62035;52.094;5.112;2023-06-14T10:43:21;7.90;;;1.92;;
62030;SDS011;62035;52.094;5.112;2023-06-14T10:48:43;6.32;;;2.42;;
62030;SDS011;62035;52.094;5.112;2023-06-14T10:51:18;5.07;;;1.50;;
62030;SDS011;62035;52.094;5.112;2023-06-14T10:53:47;4.93;;;1.65;;
62030;SDS011;62035;52.094;5.112;2023-06-14T10:56:23;3.88;;;1.33;;
62030;SDS011;62035;52.094;5.112;2023-06-14T10:58:54;6.78;;;1.80;;
62030;SDS011;62035;52.094;5.112;2023-06-14T11:01:31;4.78;;;1.40;;
62030;SDS011;62035;52.094;5.112;2023-06-14T11:04:08;2.60;;;1.70;;
62030;SDS011;62035;52.094;5.112;2023-06-14T11:06:47;3.45;;;2.03;;
62030;SDS011;62035;52.094;5.112;2023-06-14T11:12:32;4.15;;;1.75;;
62030;SDS011;62035;52.094;5.112;2023-06-14T11:15:05;6.95;;;1.80;;
62030;SDS011;62035;52.094;5.112;2023-06-14T11:17:34;11.02;;;1.90;;
62030;SDS011;62035;52.094;5.112;2023-06-14T11:20:09;3.08;;;1.50;;
62030;SDS011;62035;52.094;5.112;2023-06-14T11:22:41;4.70;;;2.15;;
62030;SDS011;62035;52.094;5.112;2023-06-14T11:25:09;6.88;;;2.28;;
62030;SDS011;62035;52.094;5.112;2023-06-14T11:27:37;2.83;;;1.45;;
62030;SDS011;62035;52.094;5.112;2023-06-14T11:30:06;2.42;;;1.50;;
62030;SDS011;62035;52.094;5.112;2023-06-14T11:32:36;4.47;;;1.55;;
62030;SDS011;62035;52.094;5.112;2023-06-14T11:35:04;3.33;;;1.70;;
62030;SDS011;62035;52.094;5.112;2023-06-14T11:37:34;3.35;;;1.40;;
62030;SDS011;62035;52.094;5.112;2023-06-14T11:40:04;6.30;;;1.65;;
62030;SDS011;62035;52.094;5.112;2023-06-14T11:42:35;4.13;;;1.52;;
62030;SDS011;62035;52.094;5.112;2023-06-14T11:45:04;5.95;;;1.60;;
62030;SDS011;62035;52.094;5.112;2023-06-14T11:47:35;6.80;;;2.38;;
62030;SDS011;62035;52.094;5.112;2023-06-14T11:50:06;2.78;;;1.58;;
62030;SDS011;62035;52.094;5.112;2023-06-14T11:55:05;5.18;;;2.10;;
62030;SDS011;62035;52.094;5.112;2023-06-14T11:57:34;6.82;;;1.60;;
62030;SDS011;62035;52.094;5.112;2023-06-14T12:00:05;2.28;;;1.50;;
62030;SDS011;62035;52.094;5.112;2023-06-14T12:02:37;3.42;;;1.85;;
62030;SDS011;62035;52.094;5.112;2023-06-14T12:05:06;5.38;;;1.50;;
62030;SDS011;62035;52.094;5.112;2023-06-14T12:07:36;3.95;;;1.60;;
62030;SDS011;62035;52.094;5.112;2023-06-14T12:10:06;8.90;;;1.73;;
62030;SDS011;62035;52.094;5.112;2023-06-14T12:12:37;2.20;;;1.40;;
62030;SDS011;62035;52.094;5.112;2023-06-14T12:15:06;4.47;;;1.40;;
62030;SDS011;62035;52.094;5.112;2023-06-14T12:17:38;3.88;;;1.45;;
62030;SDS011;62035;52.094;5.112;2023-06-14T12:20:08;8.35;;;1.58;;
62030;SDS011;62035;52.094;5.112;2023-06-14T12:22:41;5.25;;;1.63;;
62030;SDS011;62035;52.094;5.112;2023-06-14T12:25:26;5.53;;;1.60;;
62030;SDS011;62035;52.094;5.112;2023-06-14T12:27:57;3.13;;;1.50;;
62030;SDS011;62035;52.094;5.112;2023-06-14T12:30:25;3.30;;;1.60;;
62030;SDS011;62035;52.094;5.112;2023-06-14T12:32:53;2.45;;;1.50;;
62030;SDS011;62035;52.094;5.112;2023-06-14T12:35:20;6.65;;;1.73;;
62030;SDS011;62035;52.094;5.112;2023-06-14T12:37:49;7.47;;;2.47;;
62030;SDS011;62035;52.094;5.112;2023-06-14T12:40:17;5.38;;;1.77;;
62030;SDS011;62035;52.094;5.112;2023-06-14T12:42:45;9.55;;;1.98;;
62030;SDS011;62035;52.094;5.112;2023-06-14T12:45:13;5.20;;;1.48;;
62030;SDS011;62035;52.094;5.112;2023-06-14T12:47:41;4.88;;;1.70;;
62030;SDS011;62035;52.094;5.112;2023-06-14T12:50:09;4.90;;;1.45;;
62030;SDS011;62035;52.094;5.112;2023-06-14T12:52:37;3.25;;;1.73;;
62030;SDS011;62035;52.094;5.112;2023-06-14T12:55:06;5.35;;;1.67;;
62030;SDS011;62035;52.094;5.112;2023-06-14T12:57:34;8.02;;;1.90;;
62030;SDS011;62035;52.094;5.112;2023-06-14T13:00:03;2.92;;;1.50;;
62030;SDS011;62035;52.094;5.112;2023-06-14T13:02:33;4.85;;;1.52;;
62030;SDS011;62035;52.094;5.112;2023-06-14T13:05:00;2.58;;;1.70;;
62030;SDS011;62035;52.094;5.112;2023-06-14T13:07:29;5.82;;;1.75;;
62030;SDS011;62035;52.094;5.112;2023-06-14T13:09:57;3.25;;;1.63;;
62030;SDS011;62035;52.094;5.112;2023-06-14T13:12:26;2.45;;;1.48;;
62030;SDS011;62035;52.094;5.112;2023-06-14T13:14:54;3.50;;;1.70;;
62030;SDS011;62035;52.094;5.112;2023-06-14T13:17:22;4.53;;;1.67;;
62030;SDS011;62035;52.094;5.112;2023-06-14T13:19:49;10.65;;;1.98;;
62030;SDS011;62035;52.094;5.112;2023-06-14T13:22:17;5.65;;;1.80;;
62030;SDS011;62035;52.094;5.112;2023-06-14T13:24:45;5.60;;;2.13;;
62030;SDS011;62035;52.094;5.112;2023-06-14T13:27:12;4.03;;;1.70;;
62030;SDS011;62035;52.094;5.112;2023-06-14T13:29:41;8.13;;;1.55;;
62030;SDS011;62035;52.094;5.112;2023-06-14T13:32:09;6.43;;;1.70;;
62030;SDS011;62035;52.094;5.112;2023-06-14T13:34:36;6.88;;;1.67;;
62030;SDS011;62035;52.094;5.112;2023-06-14T13:37:04;6.53;;;1.77;;
62030;SDS011;62035;52.094;5.112;2023-06-14T13:39:32;7.78;;;1.83;;
62030;SDS011;62035;52.094;5.112;2023-06-14T13:42:00;7.63;;;1.60;;
62030;SDS011;62035;52.094;5.112;2023-06-14T13:44:29;3.47;;;1.73;;
62030;SDS011;62035;52.094;5.112;2023-06-14T13:46:58;3.85;;;1.63;;
62030;SDS011;62035;52.094;5.112;2023-06-14T13:49:26;4.15;;;1.73;;
62030;SDS011;62035;52.094;5.112;2023-06-14T13:51:54;7.38;;;1.70;;
62030;SDS011;62035;52.094;5.112;2023-06-14T13:54:22;11.43;;;2.28;;
62030;SDS011;62035;52.094;5.112;2023-06-14T13:56:49;4.78;;;1.40;;
62030;SDS011;62035;52.094;5.112;2023-06-14T13:59:17;2.75;;;1.17;;
62030;SDS011;62035;52.094;5.112;2023-06-14T14:01:44;2.60;;;1.50;;
62030;SDS011;62035;52.094;5.112;2023-06-14T14:04:14;2.90;;;1.30;;
62030;SDS011;62035;52.094;5.112;2023-06-14T14:06:42;3.33;;;1.45;;
62030;SDS011;62035;52.094;5.112;2023-06-14T14:09:09;3.13;;;1.17;;
62030;SDS011;62035;52.094;5.112;2023-06-14T14:11:37;13.15;;;1.70;;
62030;SDS011;62035;52.094;5.112;2023-06-14T14:14:05;3.53;;;1.40;;
62030;SDS011;62035;52.094;5.112;2023-06-14T14:16:33;3.60;;;1.90;;
62030;SDS011;62035;52.094;5.112;2023-06-14T14:19:00;6.78;;;1.60;;
62030;SDS011;62035;52.094;5.112;2023-06-14T14:21:30;7.15;;;1.50;;
62030;SDS011;62035;52.094;5.112;2023-06-14T14:23:57;5.13;;;2.05;;
62030;SDS011;62035;52.094;5.112;2023-06-14T14:26:25;8.90;;;1.90;;
62030;SDS011;62035;52.094;5.112;2023-06-14T14:28:53;2.92;;;1.50;;
62030;SDS011;62035;52.094;5.112;2023-06-14T14:31:21;3.50;;;1.60;;
62030;SDS011;62035;52.094;5.112;2023-06-14T14:33:48;3.58;;;2.00;;
62030;SDS011;62035;52.094;5.112;2023-06-14T14:36:16;7.50;;;1.48;;
62030;SDS011;62035;52.094;5.112;2023-06-14T14:38:45;6.70;;;1.80;;
62030;SDS011;62035;52.094;5.112;2023-06-14T14:41:13;5.00;;;1.88;;
62030;SDS011;62035;52.094;5.112;2023-06-14T14:43:41;3.95;;;1.55;;
62030;SDS011;62035;52.094;5.112;2023-06-14T14:46:09;2.72;;;1.30;;
62030;SDS011;62035;52.094;5.112;2023-06-14T14:48:36;2.85;;;1.60;;
62030;SDS011;62035;52.094;5.112;2023-06-14T14:51:04;6.75;;;1.60;;
62030;SDS011;62035;52.094;5.112;2023-06-14T14:53:31;11.25;;;1.85;;
62030;SDS011;62035;52.094;5.112;2023-06-14T14:56:00;3.45;;;1.60;;
62030;SDS011;62035;52.094;5.112;2023-06-14T14:58:28;8.23;;;1.30;;
62030;SDS011;62035;52.094;5.112;2023-06-14T15:00:56;4.38;;;1.60;;
62030;SDS011;62035;52.094;5.112;2023-06-14T15:03:23;5.38;;;1.52;;
62030;SDS011;62035;52.094;5.112;2023-06-14T15:05:51;4.25;;;1.52;;
62030;SDS011;62035;52.094;5.112;2023-06-14T15:08:19;4.72;;;1.60;;
62030;SDS011;62035;52.094;5.112;2023-06-14T15:10:47;4.43;;;1.50;;
62030;SDS011;62035;52.094;5.112;2023-06-14T15:13:16;4.78;;;1.45;;
62030;SDS011;62035;52.094;5.112;2023-06-14T15:15:44;3.75;;;1.50;;